Time;durP1;ratioP1;P1;durP2;ratioP2;P2;SDS_P1;SDS_P2;PMS_P1;PMS_P2;Temp;Humidity;BMP_temperature;BMP_pressure;BME280_temperature;BME280_humidity;BME280_pressure;Samples;Min_cycle;Max_cycle;Signal;HPM_P1;HPM_P2
2022/06/23 00:00:48;;;;;;;2.83;1.20;;;13.60;99.90;;;;;;5026761;28;20407;-63
2022/06/23 00:03:21;;;;;;;1.17;1.10;;;13.60;99.90;;;;;;5026751;28;20055;-64
2022/06/23 00:05:58;;;;;;;1.70;1.30;;;13.60;99.90;;;;;;5029154;28;20049;-57
2022/06/23 00:08:26;;;;;;;1.20;1.10;;;13.70;99.90;;;;;;5024601;28;20329;-67
2022/06/23 00:10:56;;;;;;;2.50;1.30;;;13.60;99.90;;;;;;5012186;28;20057;-61
2022/06/23 00:13:37;;;;;;;1.42;1.33;;;13.60;99.90;;;;;;5026054;28;20037;-62
2022/06/23 00:16:04;;;;;;;1.58;1.10;;;13.60;99.90;;;;;;5025044;28;20465;-62
2022/06/23 00:18:36;;;;;;;1.55;1.00;;;13.60;99.90;;;;;;5046606;28;20041;-57
2022/06/23 00:21:19;;;;;;;2.63;1.05;;;13.60;99.90;;;;;;5027926;28;20466;-64
2022/06/23 00:23:49;;;;;;;2.05;1.02;;;13.70;99.90;;;;;;5028182;28;20041;-64
2022/06/23 00:26:17;;;;;;;;;;;13.70;99.90;;;;;;5046638;28;20421;-63
2022/06/23 00:28:48;;;;;;;1.45;1.40;;;13.60;99.90;;;;;;5029856;28;20398;-62
2022/06/23 00:31:32;;;;;;;1.33;1.23;;;13.60;99.90;;;;;;5028938;28;20056;-61
2022/06/23 00:34:01;;;;;;;1.20;1.10;;;13.50;99.90;;;;;;5009546;28;20507;-62
2022/06/23 00:36:37;;;;;;;1.40;1.25;;;13.50;99.90;;;;;;5029275;28;20059;-59
2022/06/23 00:39:06;;;;;;;1.83;1.17;;;13.50;99.90;;;;;;5027647;28;20055;-59
2022/06/23 00:41:37;;;;;;;1.10;1.00;;;13.50;99.90;;;;;;5027734;28;20041;-64
2022/06/23 00:44:14;;;;;;;1.75;1.33;;;13.40;99.90;;;;;;5045670;28;20041;-61
2022/06/23 00:47:03;;;;;;;3.92;1.50;;;13.40;99.90;;;;;;5045811;28;20045;-62
2022/06/23 00:49:41;;;;;;;1.38;1.27;;;13.30;99.90;;;;;;5037790;28;20135;-68
2022/06/23 00:52:22;;;;;;;2.80;1.63;;;13.30;99.90;;;;;;5023250;28;20427;-57
2022/06/23 00:54:55;;;;;;;1.85;1.05;;;13.30;99.90;;;;;;5020979;28;20048;-68
2022/06/23 00:57:38;;;;;;;1.48;1.38;;;13.20;99.90;;;;;;5028747;28;20052;-66
2022/06/23 01:00:21;;;;;;;1.70;1.38;;;13.20;99.90;;;;;;5010749;28;20045;-58
2022/06/23 01:03:00;;;;;;;3.42;1.35;;;13.20;99.90;;;;;;5011413;28;20048;-61
2022/06/23 01:05:34;;;;;;;1.48;1.35;;;13.10;99.90;;;;;;5027606;28;20045;-65
2022/06/23 01:08:17;;;;;;;1.67;1.58;;;13.10;99.90;;;;;;5028647;28;20037;-64
2022/06/23 01:10:55;;;;;;;1.48;1.38;;;13.10;99.90;;;;;;5011981;28;20099;-61
2022/06/23 01:13:42;;;;;;;1.60;1.50;;;13.10;99.90;;;;;;5019327;28;20037;-64
2022/06/23 01:16:20;;;;;;;6.50;1.73;;;13.10;99.90;;;;;;5028387;28;20132;-57
2022/06/23 01:19:05;;;;;;;1.70;1.42;;;13.10;99.90;;;;;;5027945;28;20056;-61
2022/06/23 01:21:41;;;;;;;3.83;1.48;;;13.10;99.90;;;;;;5025833;28;20083;-63
2022/06/23 01:24:18;;;;;;;1.75;1.65;;;13.10;99.90;;;;;;5011892;28;20418;-59
2022/06/23 01:26:56;;;;;;;1.60;1.50;;;13.10;99.90;;;;;;5045193;28;20126;-58
2022/06/23 01:29:48;;;;;;;1.58;1.50;;;13.10;99.90;;;;;;5028949;28;20528;-66
2022/06/23 01:32:25;;;;;;;3.92;2.30;;;13.10;99.90;;;;;;5021130;28;20056;-65
2022/06/23 01:35:10;;;;;;;2.65;1.90;;;13.10;99.90;;;;;;5026882;28;20422;-62
2022/06/23 01:37:50;;;;;;;2.20;1.67;;;13.20;99.90;;;;;;5028900;28;20499;-60
2022/06/23 01:40:25;;;;;;;2.35;1.40;;;13.20;99.90;;;;;;4998206;28;20535;-58
2022/06/23 01:43:12;;;;;;;1.98;1.67;;;13.10;99.90;;;;;;5022130;28;20124;-69
2022/06/23 01:45:45;;;;;;;2.58;2.38;;;13.10;99.90;;;;;;5028490;28;20049;-61
2022/06/23 01:48:52;;;;;;;2.00;1.80;;;13.20;99.90;;;;;;5023429;28;20085;-58
2022/06/23 01:51:26;;;;;;;2.00;1.83;;;13.20;99.90;;;;;;5027054;28;20053;-59
2022/06/23 01:53:54;;;;;;;2.05;1.90;;;13.10;99.90;;;;;;5012133;28;20091;-67
2022/06/23 01:56:32;;;;;;;3.65;2.40;;;13.10;99.90;;;;;;5026885;28;20064;-58
2022/06/23 01:59:12;;;;;;;4.03;2.42;;;13.10;99.90;;;;;;5044428;28;20037;-63
2022/06/23 02:01:48;;;;;;;4.75;2.72;;;13.10;99.90;;;;;;5027092;28;20037;-67
2022/06/23 02:04:43;;;;;;;3.65;2.65;;;13.10;99.90;;;;;;5027723;28;20089;-60
2022/06/23 02:07:36;;;;;;;3.92;2.63;;;13.10;99.90;;;;;;5028186;28;20106;-64
2022/06/23 02:10:21;;;;;;;3.20;2.90;;;13.10;99.90;;;;;;5023278;28;20095;-59
2022/06/23 02:13:02;;;;;;;2.47;2.38;;;13.10;99.90;;;;;;5028470;28;20044;-57
2022/06/23 02:15:50;;;;;;;3.92;3.15;;;13.10;99.90;;;;;;5029181;28;20055;-57
2022/06/23 02:18:28;;;;;;;3.15;2.95;;;13.10;99.90;;;;;;5012269;28;20052;-60
2022/06/23 02:20:57;;;;;;;5.30;3.00;;;13.10;99.90;;;;;;5015381;28;20057;-64
2022/06/23 02:23:25;;;;;;;3.53;3.30;;;13.10;99.90;;;;;;5048854;28;20052;-57
2022/06/23 02:26:19;;;;;;;3.53;3.33;;;13.10;99.90;;;;;;5015259;28;20049;-58
2022/06/23 02:29:05;;;;;;;3.75;3.28;;;13.10;99.90;;;;;;5039537;28;20038;-62
2022/06/23 02:31:55;;;;;;;3.80;3.47;;;13.00;99.90;;;;;;5029541;28;20048;-60
2022/06/23 02:34:50;;;;;;;3.80;3.53;;;13.00;99.90;;;;;;5031757;28;20582;-65
2022/06/23 02:37:54;;;;;;;8.65;3.90;;;13.00;99.90;;;;;;5018412;28;20049;-66
2022/06/23 02:40:29;;;;;;;4.75;3.75;;;13.00;99.90;;;;;;5028526;28;20037;-61
2022/06/23 02:43:16;;;;;;;6.75;3.30;;;13.00;99.90;;;;;;5031470;28;20130;-67
2022/06/23 02:46:15;;;;;;;5.20;3.70;;;13.00;99.90;;;;;;5031715;28;20045;-66
2022/06/23 02:49:19;;;;;;;6.03;3.63;;;13.00;99.90;;;;;;5048086;28;20032;-59
2022/06/23 02:52:29;;;;;;;4.25;3.85;;;13.00;99.90;;;;;;5031013;28;20306;-65
2022/06/23 02:55:26;;;;;;;3.92;3.63;;;12.90;99.90;;;;;;5017377;28;20053;-64
2022/06/23 02:57:55;;;;;;;3.95;3.50;;;13.00;99.90;;;;;;5030079;28;20103;-57
2022/06/23 03:00:39;;;;;;;3.45;3.25;;;13.00;99.90;;;;;;5031209;28;20040;-64
2022/06/23 03:03:05;;;;;;;3.95;3.65;;;13.10;99.90;;;;;;5031215;28;20060;-67
2022/06/23 03:05:59;;;;;;;3.70;3.40;;;13.10;99.90;;;;;;5028044;28;20041;-62
2022/06/23 03:08:39;;;;;;;3.58;3.28;;;13.30;99.90;;;;;;5027648;28;20415;-58
2022/06/23 03:11:51;;;;;;;5.93;3.85;;;13.30;99.90;;;;;;5022354;28;20044;-59
2022/06/23 03:14:18;;;;;;;4.22;3.92;;;13.40;99.90;;;;;;5021775;28;20499;-67
2022/06/23 03:16:51;;;;;;;6.68;3.40;;;13.50;99.90;;;;;;5033080;28;20041;-61
2022/06/23 03:19:31;;;;;;;4.28;3.88;;;13.50;99.90;;;;;;5023162;28;20475;-67
2022/06/23 03:22:23;;;;;;;4.55;4.10;;;13.60;99.90;;;;;;5026962;28;20041;-67
2022/06/23 03:25:11;;;;;;;3.78;3.40;;;13.60;99.90;;;;;;5029837;28;20487;-59
2022/06/23 03:27:47;;;;;;;6.43;4.15;;;13.60;99.90;;;;;;5026854;28;20053;-63
2022/06/23 03:30:23;;;;;;;4.45;4.15;;;13.70;99.90;;;;;;5026629;28;20055;-64
2022/06/23 03:32:55;;;;;;;5.28;4.47;;;13.70;99.90;;;;;;5026309;28;20059;-57
2022/06/23 03:35:58;;;;;;;5.60;4.82;;;13.70;99.90;;;;;;5015631;28;20063;-63
2022/06/23 03:41:38;;;;;;;5.38;4.70;;;13.70;99.90;;;;;;5022581;28;20054;-61
2022/06/23 03:44:34;;;;;;;4.78;4.35;;;13.70;99.90;;;;;;5018042;28;20041;-58
2022/06/23 03:47:06;;;;;;;4.60;4.20;;;13.70;99.90;;;;;;5027165;28;20111;-60
2022/06/23 03:49:46;;;;;;;5.00;4.60;;;13.70;99.90;;;;;;5027109;28;20048;-60
2022/06/23 03:52:37;;;;;;;5.82;4.50;;;13.70;99.90;;;;;;5027860;28;20057;-60
2022/06/23 03:55:41;;;;;;;4.20;3.85;;;13.70;99.90;;;;;;5028200;28;20061;-59
2022/06/23 03:58:22;;;;;;;4.30;3.63;;;13.80;99.90;;;;;;5026345;28;20102;-59
2022/06/23 04:01:04;;;;;;;9.35;4.20;;;13.80;99.90;;;;;;5015700;28;20041;-59
2022/06/23 04:03:37;;;;;;;4.15;3.85;;;13.80;99.90;;;;;;5006481;28;20057;-64
2022/06/23 04:06:37;;;;;;;4.53;4.07;;;13.90;99.90;;;;;;5026525;28;20749;-59
2022/06/23 04:09:06;;;;;;;4.93;3.90;;;13.90;99.90;;;;;;5043504;28;20187;-64
2022/06/23 04:11:43;;;;;;;4.72;4.30;;;14.00;99.90;;;;;;5034259;28;20127;-56
2022/06/23 04:14:13;;;;;;;5.57;4.38;;;14.00;99.90;;;;;;5016350;28;20040;-59
2022/06/23 04:16:39;;;;;;;5.47;4.30;;;14.00;99.90;;;;;;5030128;28;20051;-61
2022/06/23 04:19:28;;;;;;;4.80;4.40;;;14.00;99.90;;;;;;5027510;28;20602;-57
2022/06/23 04:22:09;;;;;;;6.00;4.43;;;14.10;99.90;;;;;;5033494;28;20052;-64
2022/06/23 04:24:36;;;;;;;4.47;4.15;;;14.10;99.90;;;;;;5026578;28;20056;-60
2022/06/23 04:27:29;;;;;;;5.00;4.50;;;14.10;99.90;;;;;;5012266;28;20036;-65
2022/06/23 04:29:59;;;;;;;5.13;4.68;;;14.20;99.90;;;;;;5025540;28;20421;-61
2022/06/23 04:32:26;;;;;;;;;;;14.20;99.90;;;;;;5028766;28;20045;-64
2022/06/23 04:35:06;;;;;;;4.70;4.35;;;14.30;99.90;;;;;;5043576;28;19929;-60
2022/06/23 04:37:55;;;;;;;16.02;4.55;;;14.30;99.90;;;;;;5021649;28;20099;-57
2022/06/23 04:40:30;;;;;;;4.85;4.38;;;14.40;99.90;;;;;;5050036;28;20045;-64
2022/06/23 04:43:14;;;;;;;5.97;4.38;;;14.50;99.90;;;;;;5029586;28;20132;-63
2022/06/23 04:45:55;;;;;;;5.93;4.63;;;14.50;99.90;;;;;;5027502;28;20064;-62
2022/06/23 04:48:39;;;;;;;4.57;4.18;;;14.60;99.90;;;;;;5028943;28;20072;-57
2022/06/23 04:51:15;;;;;;;4.95;4.00;;;14.60;99.90;;;;;;5028915;28;20060;-57
2022/06/23 04:53:45;;;;;;;7.05;4.30;;;14.70;99.90;;;;;;5023422;28;20056;-57
2022/06/23 04:56:40;;;;;;;4.78;4.22;;;14.70;99.90;;;;;;5002024;28;20408;-59
2022/06/23 04:59:28;;;;;;;6.10;4.40;;;14.80;99.90;;;;;;5011381;28;20060;-64
2022/06/23 05:01:57;;;;;;;6.78;3.92;;;14.90;99.90;;;;;;5043798;28;20083;-59
2022/06/23 05:04:33;;;;;;;6.18;3.70;;;14.90;99.90;;;;;;5028668;28;20076;-59
2022/06/23 05:07:01;;;;;;;4.70;4.30;;;15.20;99.90;;;;;;5045610;28;20041;-63
2022/06/23 05:09:27;;;;;;;5.60;4.15;;;15.80;99.90;;;;;;5012295;28;20068;-65
2022/06/23 05:11:56;;;;;;;6.50;4.38;;;16.30;99.90;;;;;;5024765;28;20037;-62
2022/06/23 05:14:32;;;;;;;5.03;3.92;;;16.50;99.90;;;;;;5026363;28;20550;-63
2022/06/23 05:17:09;;;;;;;5.63;3.90;;;16.40;99.90;;;;;;5012573;28;20063;-64
2022/06/23 05:19:38;;;;;;;4.40;4.03;;;16.30;99.90;;;;;;5025436;28;20052;-58
2022/06/23 05:22:33;;;;;;;6.13;4.10;;;16.20;99.90;;;;;;5038131;28;20487;-64
2022/06/23 05:25:15;;;;;;;3.80;3.50;;;16.10;99.90;;;;;;5002182;28;20642;-69
2022/06/23 05:27:45;;;;;;;4.32;3.83;;;16.00;99.90;;;;;;5022605;28;20044;-64
2022/06/23 05:30:30;;;;;;;3.95;3.58;;;16.00;99.90;;;;;;5034252;28;20059;-59
2022/06/23 05:33:17;;;;;;;3.80;3.50;;;15.90;99.90;;;;;;5024929;28;21242;-63
2022/06/23 05:35:50;;;;;;;4.00;3.80;;;15.90;99.90;;;;;;5024084;28;20040;-59
2022/06/23 05:38:35;;;;;;;4.93;4.00;;;16.00;99.90;;;;;;5018224;28;20090;-60
2022/06/23 05:41:06;;;;;;;4.22;3.92;;;16.10;99.90;;;;;;5023706;28;20033;-65
2022/06/23 05:43:39;;;;;;;4.75;4.05;;;16.20;99.90;;;;;;5010295;28;20052;-62
2022/06/23 05:46:06;;;;;;;5.43;4.22;;;16.30;99.90;;;;;;5010233;28;20041;-60
2022/06/23 05:48:42;;;;;;;5.30;4.47;;;16.30;99.90;;;;;;5027182;28;20036;-58
2022/06/23 05:51:16;;;;;;;6.47;4.45;;;16.30;99.90;;;;;;5047436;28;20490;-58
2022/06/23 05:53:57;;;;;;;4.75;4.28;;;16.40;99.90;;;;;;5002781;28;20127;-63
2022/06/23 05:56:38;;;;;;;5.35;4.15;;;16.40;99.90;;;;;;5031701;28;20131;-61
2022/06/23 05:59:19;;;;;;;5.03;4.53;;;16.40;99.90;;;;;;5014320;28;20041;-60
2022/06/23 06:02:21;;;;;;;5.43;4.43;;;16.50;99.90;;;;;;5046665;28;20049;-59
2022/06/23 06:04:51;;;;;;;5.25;4.45;;;16.50;99.90;;;;;;4968568;28;20422;-59
2022/06/23 06:07:22;;;;;;;6.80;3.92;;;16.60;99.90;;;;;;5025759;28;20139;-64
2022/06/23 06:09:50;;;;;;;5.60;4.72;;;16.60;99.90;;;;;;5028358;28;20037;-65
2022/06/23 06:12:18;;;;;;;5.80;4.95;;;16.60;99.90;;;;;;5030571;28;20045;-58
2022/06/23 06:15:01;;;;;;;8.75;5.18;;;16.70;99.90;;;;;;5020817;28;20423;-60
2022/06/23 06:17:31;;;;;;;5.80;4.88;;;16.60;99.90;;;;;;5031914;28;20076;-59
2022/06/23 06:20:03;;;;;;;7.55;5.35;;;16.60;99.90;;;;;;5014446;28;20079;-61
2022/06/23 06:22:40;;;;;;;7.30;4.95;;;16.70;99.90;;;;;;5032024;28;20052;-64
2022/06/23 06:25:09;;;;;;;6.82;4.57;;;16.70;99.90;;;;;;5028802;28;20048;-63
2022/06/23 06:27:36;;;;;;;7.22;5.15;;;16.80;99.90;;;;;;5031799;28;20074;-61
2022/06/23 06:30:03;;;;;;;7.07;4.80;;;16.90;99.90;;;;;;5031219;28;20506;-63
2022/06/23 06:32:37;;;;;;;7.38;5.20;;;17.00;99.90;;;;;;5049088;28;20124;-63
2022/06/23 06:35:15;;;;;;;7.25;4.78;;;17.00;99.90;;;;;;5031473;28;20048;-59
2022/06/23 06:37:45;;;;;;;5.57;5.03;;;17.20;99.90;;;;;;5028288;28;20160;-61
2022/06/23 06:40:11;;;;;;;;;;;17.20;99.90;;;;;;5029663;28;20041;-63
2022/06/23 06:42:45;;;;;;;5.00;4.45;;;17.30;99.90;;;;;;5029445;28;19925;-56
2022/06/23 06:45:15;;;;;;;6.68;4.93;;;17.30;99.90;;;;;;5026969;28;20118;-68
2022/06/23 06:47:43;;;;;;;6.22;4.82;;;17.50;99.90;;;;;;5029650;28;20383;-69
2022/06/23 06:50:19;;;;;;;8.57;5.07;;;17.60;99.90;;;;;;5011532;28;20048;-65
2022/06/23 06:52:45;;;;;;;7.90;4.82;;;17.70;99.90;;;;;;5030950;28;20045;-58
2022/06/23 06:55:18;;;;;;;7.72;5.40;;;17.80;99.90;;;;;;5019252;28;20477;-60
2022/06/23 06:57:51;;;;;;;10.02;4.63;;;17.90;99.90;;;;;;5024436;28;20937;-58
2022/06/23 07:00:45;;;;;;;6.85;4.55;;;18.10;99.90;;;;;;5038332;28;20089;-57
2022/06/23 07:03:15;;;;;;;7.00;5.00;;;18.20;99.90;;;;;;5026992;28;20056;-63
2022/06/23 07:05:48;;;;;;;6.47;4.30;;;18.30;99.90;;;;;;5023701;28;20041;-64
2022/06/23 07:08:41;;;;;;;7.78;5.13;;;18.50;99.90;;;;;;5023537;28;20469;-64
2022/06/23 07:11:09;;;;;;;9.60;4.80;;;18.70;99.90;;;;;;5013599;28;20053;-63
2022/06/23 07:13:41;;;;;;;8.80;4.63;;;19.00;99.90;;;;;;5030702;28;20391;-57
2022/06/23 07:16:19;;;;;;;511.98;49.58;;;19.20;99.90;;;;;;5011354;28;20434;-60
2022/06/23 07:19:07;;;;;;;14.40;4.97;;;19.40;99.90;;;;;;5048461;28;20052;-61
2022/06/23 07:22:12;;;;;;;9.70;4.32;;;19.70;99.90;;;;;;5029284;28;20072;-62
2022/06/23 07:25:02;;;;;;;5.90;3.67;;;20.00;99.90;;;;;;5002648;28;20103;-62
2022/06/23 07:27:33;;;;;;;;;;;20.30;99.90;;;;;;5029875;28;20037;-61
2022/06/23 07:30:17;;;;;;;13.52;4.18;;;20.50;99.90;;;;;;5021547;28;20791;-63
2022/06/23 07:32:57;;;;;;;15.82;4.95;;;20.70;99.90;;;;;;5044878;28;20099;-60
2022/06/23 07:35:32;;;;;;;10.10;4.13;;;21.00;99.90;;;;;;5028257;28;20044;-61
2022/06/23 07:38:25;;;;;;;6.38;4.47;;;21.40;99.90;;;;;;5025753;28;20045;-67
2022/06/23 07:41:01;;;;;;;4.75;4.28;;;21.70;99.90;;;;;;5029675;28;20510;-62
2022/06/23 07:43:37;;;;;;;6.25;3.97;;;22.00;98.70;;;;;;5026992;28;20131;-59
2022/06/23 07:46:03;;;;;;;10.02;4.03;;;22.20;96.90;;;;;;5012196;28;20060;-63
2022/06/23 07:48:32;;;;;;;5.40;3.97;;;22.20;95.30;;;;;;5027009;28;20044;-67
2022/06/23 07:51:01;;;;;;;5.65;3.90;;;22.20;99.80;;;;;;5008138;28;20080;-63
2022/06/23 07:53:44;;;;;;;6.87;4.17;;;22.40;98.60;;;;;;5017200;28;20061;-64
2022/06/23 07:56:17;;;;;;;10.02;4.22;;;22.60;94.50;;;;;;5023085;28;20557;-64
2022/06/23 07:58:45;;;;;;;4.82;3.97;;;22.80;89.20;;;;;;5006458;28;20522;-60
2022/06/23 08:01:21;;;;;;;9.02;4.53;;;23.00;82.10;;;;;;5029151;28;20053;-58
2022/06/23 08:04:22;;;;;;;3.65;3.30;;;23.30;86.60;;;;;;5027554;28;20040;-64
2022/06/23 08:06:49;;;;;;;7.03;3.40;;;23.60;84.50;;;;;;5023238;28;20076;-60
2022/06/23 08:09:29;;;;;;;7.70;3.20;;;23.70;72.90;;;;;;5009066;28;20132;-59
2022/06/23 08:14:49;;;;;;;3.40;3.05;;;23.90;82.90;;;;;;5024498;28;20899;-69
2022/06/23 08:17:17;;;;;;;6.95;3.17;;;24.10;67.00;;;;;;5024720;28;20072;-58
2022/06/23 08:19:54;;;;;;;6.73;3.27;;;24.10;74.80;;;;;;5026342;28;20404;-66
2022/06/23 08:22:29;;;;;;;6.85;3.17;;;24.40;67.30;;;;;;5028653;28;20048;-66
2022/06/23 08:24:58;;;;;;;7.70;3.30;;;24.60;76.70;;;;;;5027619;28;20045;-65
2022/06/23 08:27:28;;;;;;;9.38;3.47;;;24.70;58.50;;;;;;5030409;28;20476;-63
2022/06/23 08:30:05;;;;;;;7.95;3.35;;;24.70;68.80;;;;;;5026705;28;20049;-64
2022/06/23 08:32:31;;;;;;;5.88;3.40;;;24.70;63.30;;;;;;5028241;28;20060;-65
2022/06/23 08:35:15;;;;;;;6.70;3.47;;;24.70;54.00;;;;;;5025860;28;20052;-70
2022/06/23 08:37:46;;;;;;;8.25;3.20;;;24.80;47.20;;;;;;5045960;28;20041;-65
2022/06/23 08:40:21;;;;;;;3.58;3.00;;;25.00;56.50;;;;;;5042877;28;20629;-66
2022/06/23 08:43:04;;;;;;;7.28;3.25;;;25.10;42.00;;;;;;5012003;28;20493;-68
2022/06/23 08:45:47;;;;;;;6.85;3.35;;;25.30;38.10;;;;;;5045337;28;20562;-65
2022/06/23 08:48:22;;;;;;;4.68;3.13;;;25.20;52.20;;;;;;5019901;28;20088;-69
2022/06/23 08:51:22;;;;;;;4.55;3.08;;;25.20;39.70;;;;;;5025161;28;20799;-62
2022/06/23 08:54:01;;;;;;;5.88;3.20;;;25.10;28.60;;;;;;5004940;28;20087;-65
2022/06/23 08:56:37;;;;;;;7.00;2.60;;;25.20;61.00;;;;;;5042825;28;20091;-67
2022/06/23 08:59:14;;;;;;;3.70;2.90;;;25.30;38.80;;;;;;5010301;28;20033;-65
2022/06/23 09:02:08;;;;;;;7.53;2.78;;;25.30;29.40;;;;;;5027455;28;20124;-61
2022/06/23 09:05:03;;;;;;;9.57;3.20;;;25.30;44.90;;;;;;5042333;28;20080;-66
2022/06/23 09:07:32;;;;;;;5.88;2.70;;;25.40;44.60;;;;;;5012753;28;20102;-63
2022/06/23 09:10:18;;;;;;;7.17;2.57;;;25.60;30.00;;;;;;5007855;28;20037;-67
2022/06/23 09:12:55;;;;;;;3.33;2.50;;;25.70;54.50;;;;;;5026283;28;20431;-65
2022/06/23 09:16:00;;;;;;;5.45;2.78;;;25.40;35.80;;;;;;5028955;28;20048;-59
2022/06/23 09:18:35;;;;;;;8.30;2.80;;;25.30;27.90;;;;;;5027793;28;20147;-61
2022/06/23 09:21:00;;;;;;;5.90;2.55;;;25.30;45.20;;;;;;5026276;28;20040;-59
2022/06/23 09:24:04;;;;;;;3.95;2.35;;;25.40;36.40;;;;;;5017231;28;20057;-61
2022/06/23 09:26:30;;;;;;;9.98;2.50;;;25.30;54.90;;;;;;4989585;28;20053;-69
2022/06/23 09:29:02;;;;;;;6.63;2.60;;;25.20;52.40;;;;;;5027809;28;20071;-59
2022/06/23 09:31:58;;;;;;;5.70;2.40;;;25.10;51.30;;;;;;5023078;28;20076;-67
2022/06/23 09:34:43;;;;;;;2.97;1.92;;;25.10;68.50;;;;;;5038102;28;20538;-70
2022/06/23 09:37:21;;;;;;;5.78;2.20;;;25.20;64.30;;;;;;5025836;28;20048;-66
2022/06/23 09:40:23;;;;;;;4.15;2.35;;;25.50;42.10;;;;;;5007285;28;20112;-63
2022/06/23 09:42:55;;;;;;;4.05;1.90;;;25.70;21.00;;;;;;5007878;28;20849;-65
2022/06/23 09:45:48;;;;;;;3.55;1.80;;;25.90;44.60;;;;;;5005975;28;20045;-66
2022/06/23 09:48:40;;;;;;;4.00;2.08;;;25.90;10.10;;;;;;5025362;28;20036;-70
2022/06/23 09:51:38;;;;;;;3.00;1.90;;;26.00;25.00;;;;;;5023947;28;20064;-68
2022/06/23 09:54:32;;;;;;;9.73;2.30;;;26.20;54.80;;;;;;5025470;28;20131;-62
2022/06/23 09:57:10;;;;;;;2.83;1.60;;;26.40;9.70;;;;;;5019217;28;20618;-64
2022/06/23 09:59:59;;;;;;;5.90;2.00;;;26.40;6.90;;;;;;5017776;28;20060;-70
2022/06/23 10:02:42;;;;;;;6.70;2.38;;;26.70;2.90;;;;;;5011155;28;20053;-65
2022/06/23 10:05:27;;;;;;;5.68;1.70;;;26.90;1.00;;;;;;5041272;28;20505;-65
2022/06/23 10:08:16;;;;;;;5.97;1.80;;;26.80;1.00;;;;;;5024910;28;20084;-64
2022/06/23 10:10:41;;;;;;;2.72;1.48;;;27.00;5.10;;;;;;5026594;28;20057;-60
2022/06/23 10:13:13;;;;;;;6.43;1.90;;;26.90;1.00;;;;;;5010150;28;20037;-65
2022/06/23 10:15:57;;;;;;;6.75;1.52;;;26.90;1.00;;;;;;5021782;28;20041;-66
2022/06/23 10:18:43;;;;;;;5.35;1.38;;;27.10;3.70;;;;;;5026300;28;20069;-63
2022/06/23 10:21:19;;;;;;;4.68;1.75;;;27.10;1.00;;;;;;5022936;28;20064;-67
2022/06/23 10:24:19;;;;;;;5.07;1.42;;;27.10;1.00;;;;;;5018510;28;20045;-62
2022/06/23 10:27:03;;;;;;;3.35;1.55;;;27.20;1.70;;;;;;5017999;28;20111;-63
2022/06/23 10:29:48;;;;;;;6.60;1.73;;;27.20;1.00;;;;;;5023481;28;20047;-61
2022/06/23 10:32:45;;;;;;;1.33;1.20;;;27.20;1.00;;;;;;5016469;28;20057;-71
2022/06/23 10:35:25;;;;;;;8.70;1.33;;;27.10;1.00;;;;;;5031736;28;20045;-61
2022/06/23 10:37:56;;;;;;;3.63;1.17;;;27.20;1.00;;;;;;5027856;28;20380;-66
2022/06/23 10:40:33;;;;;;;4.18;1.33;;;27.20;1.00;;;;;;5046255;28;20056;-60
2022/06/23 10:43:02;;;;;;;7.65;1.05;;;27.20;1.00;;;;;;5026966;28;20041;-62
2022/06/23 10:45:31;;;;;;;3.10;1.10;;;27.40;1.00;;;;;;5026355;28;20128;-58
2022/06/23 10:48:49;;;;;;;2.15;0.95;;;27.50;1.00;;;;;;5012130;28;20872;-61
2022/06/23 10:51:48;;;;;;;3.58;1.40;;;27.40;1.00;;;;;;5013743;28;20499;-62
2022/06/23 10:54:28;;;;;;;3.00;1.30;;;27.50;1.00;;;;;;5023050;28;20092;-70
2022/06/23 10:57:12;;;;;;;4.35;1.35;;;27.60;1.00;;;;;;5006209;28;20085;-62
2022/06/23 10:59:54;;;;;;;3.80;1.20;;;27.70;1.00;;;;;;5016542;28;20195;-61
2022/06/23 11:02:55;;;;;;;5.00;1.23;;;27.60;1.00;;;;;;5032166;28;20068;-63
2022/06/23 11:05:28;;;;;;;3.47;1.73;;;27.70;1.00;;;;;;5007472;28;20044;-64
2022/06/23 11:08:05;;;;;;;4.13;1.15;;;27.90;1.00;;;;;;5027832;28;20061;-66
2022/06/23 11:11:01;;;;;;;2.10;1.08;;;28.00;1.00;;;;;;5027142;28;20522;-61
2022/06/23 11:13:46;;;;;;;2.20;1.20;;;28.10;1.00;;;;;;5027805;28;20193;-66
2022/06/23 11:16:39;;;;;;;7.03;1.33;;;27.90;1.00;;;;;;5043439;28;20218;-69
2022/06/23 11:20:08;;;;;;;2.60;1.10;;;27.90;1.00;;;;;;5039854;28;20045;-63
2022/06/23 11:23:08;;;;;;;5.28;1.20;;;27.80;1.00;;;;;;4947195;28;20072;-71
2022/06/23 11:25:51;;;;;;;2.42;1.17;;;27.90;1.00;;;;;;4949160;28;20674;-67
2022/06/23 11:28:53;;;;;;;5.97;1.30;;;27.90;1.00;;;;;;5008082;28;20410;-62
2022/06/23 11:31:30;;;;;;;6.05;1.35;;;27.90;1.00;;;;;;4946955;28;20049;-60
2022/06/23 11:34:11;;;;;;;5.00;2.08;;;27.70;1.00;;;;;;5007314;28;20131;-62
2022/06/23 11:36:43;;;;;;;2.05;1.05;;;27.70;1.00;;;;;;5019729;28;20045;-62
2022/06/23 11:39:33;;;;;;;4.35;1.10;;;27.80;1.00;;;;;;5005597;28;20072;-66
2022/06/23 11:42:37;;;;;;;4.82;1.33;;;27.90;1.00;;;;;;5010024;28;20043;-69
2022/06/23 11:45:23;;;;;;;4.25;1.02;;;28.00;1.00;;;;;;5027985;28;20073;-65
2022/06/23 11:48:08;;;;;;;5.05;1.30;;;28.10;1.00;;;;;;5044109;28;20083;-60
2022/06/23 11:50:43;;;;;;;4.05;1.17;;;28.00;1.00;;;;;;5005587;28;20057;-61
2022/06/23 11:53:27;;;;;;;5.22;1.42;;;28.00;1.00;;;;;;5020952;28;20045;-60
2022/06/23 11:55:55;;;;;;;4.78;1.20;;;28.10;1.00;;;;;;5009922;28;20508;-58
2022/06/23 11:58:43;;;;;;;5.72;1.23;;;28.30;1.00;;;;;;5009454;28;20126;-67
2022/06/23 12:01:15;;;;;;;2.72;1.10;;;28.30;1.00;;;;;;5006244;28;20595;-66
2022/06/23 12:03:46;;;;;;;4.38;1.45;;;28.30;1.00;;;;;;5027431;28;20567;-64
2022/06/23 12:06:18;;;;;;;2.40;1.35;;;28.30;1.00;;;;;;5008582;28;20045;-63
2022/06/23 12:09:01;;;;;;;1.90;0.95;;;28.30;1.00;;;;;;5008975;28;20037;-61
2022/06/23 12:11:31;;;;;;;3.60;1.50;;;28.30;1.00;;;;;;5024727;28;20179;-70
2022/06/23 12:14:00;;;;;;;4.10;1.27;;;28.40;1.00;;;;;;5008218;28;20049;-60
2022/06/23 12:16:26;;;;;;;7.35;1.70;;;28.50;1.00;;;;;;5009964;28;20045;-64
2022/06/23 12:19:01;;;;;;;1.80;1.10;;;28.50;1.00;;;;;;5004234;28;20057;-69
2022/06/23 12:21:41;;;;;;;8.02;1.20;;;28.50;1.00;;;;;;5007542;28;20053;-67
2022/06/23 12:24:12;;;;;;;6.25;1.30;;;28.50;1.00;;;;;;5006875;28;20411;-70
2022/06/23 12:26:47;;;;;;;3.35;1.02;;;28.50;1.00;;;;;;5007083;28;20057;-69
2022/06/23 12:29:55;;;;;;;9.98;1.50;;;28.60;1.00;;;;;;4990773;28;20047;-66
2022/06/23 12:32:47;;;;;;;4.43;1.42;;;28.60;1.00;;;;;;4994480;28;20049;-60
2022/06/23 12:35:22;;;;;;;8.00;1.20;;;28.70;1.00;;;;;;5006834;28;20050;-65
2022/06/23 12:38:10;;;;;;;2.53;1.20;;;28.70;1.00;;;;;;5025291;28;20037;-63
2022/06/23 12:40:51;;;;;;;4.72;1.15;;;28.60;1.00;;;;;;5004580;28;20045;-66
2022/06/23 12:43:29;;;;;;;5.43;1.27;;;28.70;1.00;;;;;;5008544;28;20049;-64
2022/06/23 12:45:59;;;;;;;3.87;1.37;;;28.60;1.00;;;;;;5009110;28;20068;-58
2022/06/23 12:48:52;;;;;;;1.40;1.13;;;28.50;1.00;;;;;;5026506;28;20087;-65
2022/06/23 12:51:38;;;;;;;2.95;1.02;;;28.60;1.00;;;;;;5007847;28;20389;-64
2022/06/23 12:54:27;;;;;;;1.67;0.95;;;28.70;1.00;;;;;;5003935;28;20046;-58
2022/06/23 12:56:55;;;;;;;8.93;0.93;;;28.80;1.00;;;;;;5008732;28;20046;-63
2022/06/23 12:59:28;;;;;;;;;;;28.90;1.00;;;;;;5037799;28;20491;-61
2022/06/23 13:01:57;;;;;;;1.38;1.20;;;28.90;1.00;;;;;;5034346;28;19925;-62
2022/06/23 13:04:52;;;;;;;1.67;0.90;;;28.80;1.00;;;;;;5003069;28;20051;-63
2022/06/23 13:07:24;;;;;;;7.50;1.05;;;29.00;1.00;;;;;;5016111;28;20530;-69
2022/06/23 13:09:58;;;;;;;2.42;1.05;;;29.10;1.00;;;;;;5023593;28;20446;-61
2022/06/23 13:12:40;;;;;;;7.57;1.95;;;29.10;1.00;;;;;;5027113;28;20060;-62
2022/06/23 13:15:16;;;;;;;2.50;1.08;;;29.20;1.00;;;;;;5026378;28;20139;-65
2022/06/23 13:17:53;;;;;;;2.53;0.93;;;29.20;1.00;;;;;;5028320;28;20051;-70
2022/06/23 13:20:54;;;;;;;2.78;1.23;;;29.10;1.00;;;;;;5025723;28;20072;-61
2022/06/23 13:23:49;;;;;;;7.22;1.00;;;29.20;1.00;;;;;;5024504;28;20049;-58
2022/06/23 13:26:33;;;;;;;4.25;0.98;;;29.20;1.00;;;;;;5013010;28;20046;-61
2022/06/23 13:29:06;;;;;;;3.40;0.90;;;29.20;1.00;;;;;;5026468;28;20053;-60
2022/06/23 13:31:48;;;;;;;9.02;1.77;;;29.30;1.00;;;;;;5025475;28;20176;-63
2022/06/23 13:34:27;;;;;;;2.65;0.85;;;29.30;1.00;;;;;;5025644;28;20132;-66
2022/06/23 13:37:08;;;;;;;5.20;1.25;;;29.30;1.00;;;;;;5019675;28;20049;-61
2022/06/23 13:40:16;;;;;;;4.03;1.50;;;29.30;1.00;;;;;;5018851;28;20052;-69
2022/06/23 13:42:54;;;;;;;6.85;0.80;;;29.30;1.00;;;;;;5003820;28;20044;-67
2022/06/23 13:45:50;;;;;;;4.03;0.98;;;29.40;1.00;;;;;;5014280;28;20041;-64
2022/06/23 13:48:36;;;;;;;2.05;1.08;;;29.40;1.00;;;;;;5015583;28;20496;-64
2022/06/23 13:51:05;;;;;;;5.05;1.30;;;29.40;1.00;;;;;;5021884;28;20063;-66
2022/06/23 13:53:59;;;;;;;1.63;1.17;;;29.30;1.00;;;;;;5016861;28;20084;-63
2022/06/23 13:56:55;;;;;;;2.83;1.27;;;29.10;1.00;;;;;;5019571;28;20057;-69
2022/06/23 13:59:27;;;;;;;2.63;0.85;;;29.10;1.00;;;;;;5008101;28;20384;-60
2022/06/23 14:02:01;;;;;;;2.28;1.20;;;29.10;1.00;;;;;;5022580;28;20038;-63
2022/06/23 14:04:45;;;;;;;3.13;1.27;;;29.20;1.00;;;;;;5044131;28;20057;-61